Harmony Leader — C6YP3 — position and weather

sailwx.info

Track history (hours):
 
Tides and Currents Weather Stations Pressure Air Temp Water Temp Dewpoint Dewpoint Depression Visibility Wind Speed Wind Dir Waves Ship Positions

Harmony Leader

Last reported at 2017-Oct-07 00:34 UTC. Time now 2017-Oct-23 06:31 UTC.
Position N 37°23' E 025°55'.
Warning: this ship's position is 16 days out of date.

Length 200 m; draft 9.5 m.

Type: Cargo ship. MMSI: 311040800.

Date/timePositionNaut miles runAvg speedWind from/ knotsBaromVisibWave heightAir tempDewpointWater temp
2017-Oct-07 00:34N 37°23' E 025°55'115.2
2017-Oct-07 00:31N 37°23' E 025°54'815.1
2017-Oct-07 00:01N 37°30' E 025°50'914.8
2017-Oct-06 23:25N 37°38' E 025°46'614.9
2017-Oct-06 23:01N 37°44' E 025°44'22410.2
2017-Oct-06 00:56N 40°25' E 029°04'1 0.1
2017-Oct-05 17:44N 40°25' E 029°05'2 5.2
2017-Oct-05 17:20N 40°26' E 029°02'  
2017-Oct-03 04:24N 37°44' E 016°07'615.2
2017-Oct-03 04:00N 37°46' E 015°59'814.9
2017-Oct-03 03:28N 37°48' E 015°49'714.7
2017-Oct-03 03:00N 37°50' E 015°41'714.8
2017-Oct-03 02:30N 37°56' E 015°36'816.0
2017-Oct-03 02:01N 38°04' E 015°35'714.9
2017-Oct-03 01:30N 38°12' E 015°35'713.4
2017-Oct-03 01:00N 38°17' E 015°41'714.7
2017-Oct-03 00:30N 38°24' E 015°38'815.3
2017-Oct-03 00:00N 38°29' E 015°31'815.5
2017-Oct-02 23:30N 38°34' E 015°23'815.7
2017-Oct-02 23:00N 38°40' E 015°15'714.2
2017-Oct-02 22:30N 38°44' E 015°09'815.3
2017-Oct-02 22:00N 38°49' E 015°01'815.4
2017-Oct-02 21:30N 38°55' E 014°54'35515.7
2017-Oct-01 22:55N 43°10' E 009°29'615.4
2017-Oct-01 22:31N 43°16' E 009°24'815.6
2017-Oct-01 22:01N 43°23' E 009°19'915.6
2017-Oct-01 21:26N 43°30' E 009°12'615.1
2017-Oct-01 21:01N 43°35' E 009°07'815.2
2017-Oct-01 20:30N 43°42' E 009°02'815.4
2017-Oct-01 20:01N 43°49' E 008°57'815.6
2017-Oct-01 19:30N 43°56' E 008°51'815.8
2017-Oct-01 19:01N 44°02' E 008°46'815.8
2017-Oct-01 18:31N 44°09' E 008°40'815.6
2017-Oct-01 18:00N 44°16' E 008°35'4 8.8
2017-Oct-01 17:30N 44°19' E 008°30'0 0.2
2017-Oct-01 16:55N 44°19' E 008°30'0 0.0
2017-Oct-01 16:25N 44°19' E 008°30'0 0.0
2017-Oct-01 15:58N 44°19' E 008°30'0 0.0
2017-Oct-01 15:25N 44°19' E 008°30'0 0.0
2017-Oct-01 14:58N 44°19' E 008°30'0 0.0
2017-Oct-01 14:25N 44°19' E 008°30'0 0.0
2017-Oct-01 13:58N 44°19' E 008°30'0 0.0
2017-Oct-01 13:28N 44°19' E 008°30'0 0.0
2017-Oct-01 12:55N 44°19' E 008°30'0 0.0
2017-Oct-01 12:25N 44°19' E 008°30'0 0.0
2017-Oct-01 11:55N 44°19' E 008°30'0 0.0
2017-Oct-01 11:25N 44°19' E 008°30'0 0.0
2017-Oct-01 10:55N 44°19' E 008°30'0 0.0
2017-Oct-01 10:28N 44°19' E 008°30'0 0.6
2017-Oct-01 10:00N 44°19' E 008°30'1 2.3
2017-Oct-01 09:30N 44°18' E 008°32'4 8.7
2017-Oct-01 09:00N 44°14' E 008°33'1 2.8
2017-Oct-01 08:30N 44°13' E 008°33'0 1.0
2017-Oct-01 08:00N 44°13' E 008°33'0 1.0
2017-Oct-01 07:30N 44°14' E 008°33'2 3.5
2017-Oct-01 07:00N 44°12' E 008°32'5 9.8
2017-Oct-01 06:30N 44°08' E 008°29'5 9.2
2017-Oct-01 06:00N 44°04' E 008°26'5 9.6
2017-Oct-01 05:30N 43°59' E 008°23'5 9.5
2017-Oct-01 05:00N 43°55' E 008°20'7 9.6
2017-Oct-01 04:18N 43°49' E 008°15'  
2017-Sep-28 21:32N 37°43' W 000°22'015.6
2017-Sep-28 21:30N 37°43' W 000°23'815.7
2017-Sep-28 21:00N 37°36' W 000°28'815.5
2017-Sep-28 20:31N 37°30' W 000°35'815.6
2017-Sep-28 20:01N 37°25' W 000°42'815.8
2017-Sep-28 19:30N 37°20' W 000°49'1515.3
2017-Sep-28 18:33N 37°10' W 001°03'215.2
2017-Sep-28 18:27N 37°09' W 001°05'21016.1
2017-Sep-28 05:24N 36°00' W 005°12'615.9
2017-Sep-28 05:00N 35°59' W 005°19'714.9
2017-Sep-28 04:30N 35°57' W 005°28'4 1.1
2017-Sep-28 01:13N 35°53' W 005°30'0 0.0
2017-Sep-28 00:40N 35°53' W 005°30'2 3.1
2017-Sep-28 00:04N 35°54' W 005°32'1 9.4
2017-Sep-27 23:54N 35°55' W 005°34'6 8.3
2017-Sep-27 23:14N 35°54' W 005°41'210.4
2017-Sep-27 23:01N 35°54' W 005°44'5 9.9
2017-Sep-27 22:31N 35°54' W 005°50'611.8
2017-Sep-27 22:00N 35°54' W 005°57'1213.3
2017-Sep-27 21:04N 35°54' W 006°12'8313.3
2017-Sep-27 14:48N 36°15' W 007°52'413.9
2017-Sep-27 14:31N 36°16' W 007°57'2114.1
2017-Sep-27 13:02N 36°22' W 008°22'014.3
2017-Sep-27 13:00N 36°22' W 008°22'914.3
2017-Sep-27 12:24N 36°24' W 008°33'814.7
2017-Sep-27 11:50N 36°26' W 008°43'716.0
2017-Sep-27 11:25N 36°27' W 008°51'815.9
2017-Sep-27 10:56N 36°29' W 009°00'715.2
2017-Sep-27 10:30N 36°31' W 009°08'815.6
2017-Sep-27 10:00N 36°33' W 009°17'816.9
2017-Sep-27 09:30N 36°39' W 009°25'916.8
2017-Sep-27 09:00N 36°45' W 009°32'816.2
2017-Sep-27 08:30N 36°53' W 009°35'816.7
2017-Sep-27 08:00N 37°01' W 009°38'1116.0
2017-Sep-27 07:19N 37°11' W 009°41'515.6
2017-Sep-27 07:00N 37°16' W 009°42'915.7
2017-Sep-27 06:28N 37°25' W 009°44'715.7
2017-Sep-27 06:00N 37°32' W 009°45'816.1
2017-Sep-27 05:30N 37°40' W 009°47'816.2
2017-Sep-27 05:00N 37°48' W 009°49'816.3
2017-Sep-27 04:30N 37°55' W 009°52'816.2
2017-Sep-27 04:00N 38°03' W 009°54'816.3
2017-Sep-27 03:30N 38°11' W 009°57'816.3
2017-Sep-27 03:00N 38°19' W 009°59'817.0
2017-Sep-27 02:30N 38°27' W 010°02'917.5
2017-Sep-27 02:00N 38°36' W 010°05'917.5
2017-Sep-27 01:30N 38°44' W 010°06'917.2
2017-Sep-27 01:00N 38°53' W 010°06'  
Track history (hours):
 
Tides and Currents Weather Stations Pressure Air Temp Water Temp Dewpoint Dewpoint Depression Visibility Wind Speed Wind Dir Waves Ship Positions

Harmony Leader

Last reported at 2017-Oct-07 00:34 UTC. Time now 2017-Oct-23 06:31 UTC.
Position N 37°23' E 025°55'.
Warning: this ship's position is 16 days out of date.

Length 200 m; draft 9.5 m.

Type: Cargo ship. MMSI: 311040800.

Date/timePositionNaut miles runAvg speedWind from/ knotsBaromVisibWave heightAir tempDewpointWater temp
2017-Oct-07 00:34N 37°23' E 025°55'115.2
2017-Oct-07 00:31N 37°23' E 025°54'815.1
2017-Oct-07 00:01N 37°30' E 025°50'914.8
2017-Oct-06 23:25N 37°38' E 025°46'614.9
2017-Oct-06 23:01N 37°44' E 025°44'22410.2
2017-Oct-06 00:56N 40°25' E 029°04'1 0.1
2017-Oct-05 17:44N 40°25' E 029°05'2 5.2
2017-Oct-05 17:20N 40°26' E 029°02'  
2017-Oct-03 04:24N 37°44' E 016°07'615.2
2017-Oct-03 04:00N 37°46' E 015°59'814.9
2017-Oct-03 03:28N 37°48' E 015°49'714.7
2017-Oct-03 03:00N 37°50' E 015°41'714.8
2017-Oct-03 02:30N 37°56' E 015°36'816.0
2017-Oct-03 02:01N 38°04' E 015°35'714.9
2017-Oct-03 01:30N 38°12' E 015°35'713.4
2017-Oct-03 01:00N 38°17' E 015°41'714.7
2017-Oct-03 00:30N 38°24' E 015°38'815.3
2017-Oct-03 00:00N 38°29' E 015°31'815.5
2017-Oct-02 23:30N 38°34' E 015°23'815.7
2017-Oct-02 23:00N 38°40' E 015°15'714.2
2017-Oct-02 22:30N 38°44' E 015°09'815.3
2017-Oct-02 22:00N 38°49' E 015°01'815.4
2017-Oct-02 21:30N 38°55' E 014°54'35515.7
2017-Oct-01 22:55N 43°10' E 009°29'615.4
2017-Oct-01 22:31N 43°16' E 009°24'815.6
2017-Oct-01 22:01N 43°23' E 009°19'915.6
2017-Oct-01 21:26N 43°30' E 009°12'615.1
2017-Oct-01 21:01N 43°35' E 009°07'815.2
2017-Oct-01 20:30N 43°42' E 009°02'815.4
2017-Oct-01 20:01N 43°49' E 008°57'815.6
2017-Oct-01 19:30N 43°56' E 008°51'815.8
2017-Oct-01 19:01N 44°02' E 008°46'815.8
2017-Oct-01 18:31N 44°09' E 008°40'815.6
2017-Oct-01 18:00N 44°16' E 008°35'4 8.8
2017-Oct-01 17:30N 44°19' E 008°30'0 0.2
2017-Oct-01 16:55N 44°19' E 008°30'0 0.0
2017-Oct-01 16:25N 44°19' E 008°30'0 0.0
2017-Oct-01 15:58N 44°19' E 008°30'0 0.0
2017-Oct-01 15:25N 44°19' E 008°30'0 0.0
2017-Oct-01 14:58N 44°19' E 008°30'0 0.0
2017-Oct-01 14:25N 44°19' E 008°30'0 0.0
2017-Oct-01 13:58N 44°19' E 008°30'0 0.0
2017-Oct-01 13:28N 44°19' E 008°30'0 0.0
2017-Oct-01 12:55N 44°19' E 008°30'0 0.0
2017-Oct-01 12:25N 44°19' E 008°30'0 0.0
2017-Oct-01 11:55N 44°19' E 008°30'0 0.0
2017-Oct-01 11:25N 44°19' E 008°30'0 0.0
2017-Oct-01 10:55N 44°19' E 008°30'0 0.0
2017-Oct-01 10:28N 44°19' E 008°30'0 0.6
2017-Oct-01 10:00N 44°19' E 008°30'1 2.3
2017-Oct-01 09:30N 44°18' E 008°32'4 8.7
2017-Oct-01 09:00N 44°14' E 008°33'1 2.8
2017-Oct-01 08:30N 44°13' E 008°33'0 1.0
2017-Oct-01 08:00N 44°13' E 008°33'0 1.0
2017-Oct-01 07:30N 44°14' E 008°33'2 3.5
2017-Oct-01 07:00N 44°12' E 008°32'5 9.8
2017-Oct-01 06:30N 44°08' E 008°29'5 9.2
2017-Oct-01 06:00N 44°04' E 008°26'5 9.6
2017-Oct-01 05:30N 43°59' E 008°23'5 9.5
2017-Oct-01 05:00N 43°55' E 008°20'7 9.6
2017-Oct-01 04:18N 43°49' E 008°15'  
2017-Sep-28 21:32N 37°43' W 000°22'015.6
2017-Sep-28 21:30N 37°43' W 000°23'815.7
2017-Sep-28 21:00N 37°36' W 000°28'815.5
2017-Sep-28 20:31N 37°30' W 000°35'815.6
2017-Sep-28 20:01N 37°25' W 000°42'815.8
2017-Sep-28 19:30N 37°20' W 000°49'1515.3
2017-Sep-28 18:33N 37°10' W 001°03'215.2
2017-Sep-28 18:27N 37°09' W 001°05'21016.1
2017-Sep-28 05:24N 36°00' W 005°12'615.9
2017-Sep-28 05:00N 35°59' W 005°19'714.9
2017-Sep-28 04:30N 35°57' W 005°28'4 1.1
2017-Sep-28 01:13N 35°53' W 005°30'0 0.0
2017-Sep-28 00:40N 35°53' W 005°30'2 3.1
2017-Sep-28 00:04N 35°54' W 005°32'1 9.4
2017-Sep-27 23:54N 35°55' W 005°34'6 8.3
2017-Sep-27 23:14N 35°54' W 005°41'210.4
2017-Sep-27 23:01N 35°54' W 005°44'5 9.9
2017-Sep-27 22:31N 35°54' W 005°50'611.8
2017-Sep-27 22:00N 35°54' W 005°57'1213.3
2017-Sep-27 21:04N 35°54' W 006°12'8313.3
2017-Sep-27 14:48N 36°15' W 007°52'413.9
2017-Sep-27 14:31N 36°16' W 007°57'2114.1
2017-Sep-27 13:02N 36°22' W 008°22'014.3
2017-Sep-27 13:00N 36°22' W 008°22'914.3
2017-Sep-27 12:24N 36°24' W 008°33'814.7
2017-Sep-27 11:50N 36°26' W 008°43'716.0
2017-Sep-27 11:25N 36°27' W 008°51'815.9
2017-Sep-27 10:56N 36°29' W 009°00'715.2
2017-Sep-27 10:30N 36°31' W 009°08'815.6
2017-Sep-27 10:00N 36°33' W 009°17'816.9
2017-Sep-27 09:30N 36°39' W 009°25'916.8
2017-Sep-27 09:00N 36°45' W 009°32'816.2
2017-Sep-27 08:30N 36°53' W 009°35'816.7
2017-Sep-27 08:00N 37°01' W 009°38'1116.0
2017-Sep-27 07:19N 37°11' W 009°41'515.6
2017-Sep-27 07:00N 37°16' W 009°42'915.7
2017-Sep-27 06:28N 37°25' W 009°44'715.7
2017-Sep-27 06:00N 37°32' W 009°45'816.1
2017-Sep-27 05:30N 37°40' W 009°47'816.2
2017-Sep-27 05:00N 37°48' W 009°49'816.3
2017-Sep-27 04:30N 37°55' W 009°52'816.2
2017-Sep-27 04:00N 38°03' W 009°54'816.3
2017-Sep-27 03:30N 38°11' W 009°57'816.3
2017-Sep-27 03:00N 38°19' W 009°59'817.0
2017-Sep-27 02:30N 38°27' W 010°02'917.5
2017-Sep-27 02:00N 38°36' W 010°05'917.5
2017-Sep-27 01:30N 38°44' W 010°06'917.2
2017-Sep-27 01:00N 38°53' W 010°06'  

Dump ship's entire track history